<?xml version="1.0" encoding="UTF-8"?>
<gpx creator="Wikiloc - https://www.wikiloc.com" version="1.1" xmlns="http://www.topografix.com/GPX/1/1" xmlns:xsi="http://www.w3.org/2001/XMLSchema-instance" xsi:schemaLocation="http://www.topografix.com/GPX/1/1 http://www.topografix.com/GPX/1/1/gpx.xsd">
  <metadata>
    <name>Wikiloc - Pico Arlas</name>
    <author>
      <name>Águeda</name>
      <link href="https://www.wikiloc.com/wikiloc/user.do?id=129065">
        <text>Águeda on Wikiloc</text>
      </link>
    </author>
    <link href="https://www.wikiloc.com/hiking-trails/pico-arlas-103029564">
      <text>Pico Arlas on Wikiloc</text>
    </link>
    <time>2022-05-17T11:25:50Z</time>
  </metadata>
  <wpt lat="42.969404" lon="-0.767330">
    <ele>1765.5</ele>
    <time>2022-05-17T11:25:50Z</time>
    <name>Col de la Pierre Saint-Martín</name>
    <cmt></cmt>
    <desc></desc>
  </wpt>
  <wpt lat="42.967255" lon="-0.754157">
    <ele>1901.8</ele>
    <time>2022-05-17T11:25:50Z</time>
    <name>Fuente de la Contienda</name>
    <cmt></cmt>
    <desc></desc>
  </wpt>
  <wpt lat="42.967174" lon="-0.751679">
    <ele>2037.0</ele>
    <time>2022-05-17T11:25:50Z</time>
    <name>A. Pico Arlas</name>
    <cmt></cmt>
    <desc></desc>
  </wpt>
  <wpt lat="42.967744" lon="-0.755117">
    <ele>1899.8</ele>
    <time>2022-05-17T11:25:50Z</time>
    <name>B. Bifurcación</name>
    <cmt></cmt>
    <desc></desc>
  </wpt>
  <wpt lat="42.963764" lon="-0.750370">
    <ele>1917.0</ele>
    <time>2022-05-17T11:25:50Z</time>
    <name>C. Col de Pescamou</name>
    <cmt></cmt>
    <desc></desc>
  </wpt>
  <trk>
    <name>Pico Arlas</name>
    <cmt></cmt>
    <desc></desc>
    <trkseg>
      <trkpt lat="42.969379" lon="-0.767414">
        <ele>1765.596</ele>
        <time>2022-05-17T11:37:09Z</time>
      </trkpt>
      <trkpt lat="42.969181" lon="-0.767369">
        <ele>1767.731</ele>
        <time>2022-05-17T11:37:49Z</time>
      </trkpt>
      <trkpt lat="42.968994" lon="-0.767314">
        <ele>1772.224</ele>
        <time>2022-05-17T11:38:29Z</time>
      </trkpt>
      <trkpt lat="42.968892" lon="-0.767276">
        <ele>1775.409</ele>
        <time>2022-05-17T11:39:09Z</time>
      </trkpt>
      <trkpt lat="42.968813" lon="-0.767179">
        <ele>1777.370</ele>
        <time>2022-05-17T11:39:49Z</time>
      </trkpt>
      <trkpt lat="42.968762" lon="-0.767040">
        <ele>1778.669</ele>
        <time>2022-05-17T11:40:29Z</time>
      </trkpt>
      <trkpt lat="42.968728" lon="-0.766861">
        <ele>1779.712</ele>
        <time>2022-05-17T11:41:09Z</time>
      </trkpt>
      <trkpt lat="42.968773" lon="-0.766610">
        <ele>1781.599</ele>
        <time>2022-05-17T11:41:49Z</time>
      </trkpt>
      <trkpt lat="42.968722" lon="-0.766424">
        <ele>1781.661</ele>
        <time>2022-05-17T11:42:29Z</time>
      </trkpt>
      <trkpt lat="42.968677" lon="-0.766285">
        <ele>1781.698</ele>
        <time>2022-05-17T11:43:09Z</time>
      </trkpt>
      <trkpt lat="42.968603" lon="-0.766178">
        <ele>1780.744</ele>
        <time>2022-05-17T11:43:49Z</time>
      </trkpt>
      <trkpt lat="42.968671" lon="-0.766020">
        <ele>1780.935</ele>
        <time>2022-05-17T11:44:29Z</time>
      </trkpt>
      <trkpt lat="42.968620" lon="-0.765873">
        <ele>1778.623</ele>
        <time>2022-05-17T11:45:09Z</time>
      </trkpt>
      <trkpt lat="42.968591" lon="-0.765670">
        <ele>1772.038</ele>
        <time>2022-05-17T11:45:49Z</time>
      </trkpt>
      <trkpt lat="42.968642" lon="-0.765420">
        <ele>1768.870</ele>
        <time>2022-05-17T11:46:29Z</time>
      </trkpt>
      <trkpt lat="42.968641" lon="-0.765241">
        <ele>1767.417</ele>
        <time>2022-05-17T11:47:09Z</time>
      </trkpt>
      <trkpt lat="42.968607" lon="-0.765054">
        <ele>1766.009</ele>
        <time>2022-05-17T11:47:49Z</time>
      </trkpt>
      <trkpt lat="42.968669" lon="-0.764875">
        <ele>1768.574</ele>
        <time>2022-05-17T11:48:29Z</time>
      </trkpt>
      <trkpt lat="42.968786" lon="-0.764698">
        <ele>1770.633</ele>
        <time>2022-05-17T11:49:09Z</time>
      </trkpt>
      <trkpt lat="42.968882" lon="-0.764536">
        <ele>1770.746</ele>
        <time>2022-05-17T11:49:49Z</time>
      </trkpt>
      <trkpt lat="42.968942" lon="-0.764143">
        <ele>1772.063</ele>
        <time>2022-05-17T11:50:29Z</time>
      </trkpt>
      <trkpt lat="42.969030" lon="-0.763898">
        <ele>1774.375</ele>
        <time>2022-05-17T11:51:09Z</time>
      </trkpt>
      <trkpt lat="42.969174" lon="-0.763753">
        <ele>1776.512</ele>
        <time>2022-05-17T11:51:49Z</time>
      </trkpt>
      <trkpt lat="42.969284" lon="-0.763509">
        <ele>1784.828</ele>
        <time>2022-05-17T11:52:29Z</time>
      </trkpt>
      <trkpt lat="42.969344" lon="-0.763282">
        <ele>1786.339</ele>
        <time>2022-05-17T11:53:09Z</time>
      </trkpt>
      <trkpt lat="42.969398" lon="-0.763062">
        <ele>1784.957</ele>
        <time>2022-05-17T11:53:49Z</time>
      </trkpt>
      <trkpt lat="42.969419" lon="-0.762950">
        <ele>1783.826</ele>
        <time>2022-05-17T11:54:29Z</time>
      </trkpt>
      <trkpt lat="42.969394" lon="-0.762770">
        <ele>1783.847</ele>
        <time>2022-05-17T11:55:09Z</time>
      </trkpt>
      <trkpt lat="42.969308" lon="-0.762645">
        <ele>1788.811</ele>
        <time>2022-05-17T11:55:49Z</time>
      </trkpt>
      <trkpt lat="42.969340" lon="-0.762510">
        <ele>1790.209</ele>
        <time>2022-05-17T11:56:29Z</time>
      </trkpt>
      <trkpt lat="42.969226" lon="-0.762328">
        <ele>1797.983</ele>
        <time>2022-05-17T11:57:09Z</time>
      </trkpt>
      <trkpt lat="42.969147" lon="-0.762205">
        <ele>1802.992</ele>
        <time>2022-05-17T11:57:49Z</time>
      </trkpt>
      <trkpt lat="42.969064" lon="-0.762156">
        <ele>1805.925</ele>
        <time>2022-05-17T11:58:29Z</time>
      </trkpt>
      <trkpt lat="42.968936" lon="-0.762123">
        <ele>1809.742</ele>
        <time>2022-05-17T11:59:09Z</time>
      </trkpt>
      <trkpt lat="42.968875" lon="-0.762059">
        <ele>1812.054</ele>
        <time>2022-05-17T11:59:49Z</time>
      </trkpt>
      <trkpt lat="42.968766" lon="-0.762011">
        <ele>1813.521</ele>
        <time>2022-05-17T12:00:29Z</time>
      </trkpt>
      <trkpt lat="42.968705" lon="-0.761869">
        <ele>1816.017</ele>
        <time>2022-05-17T12:01:09Z</time>
      </trkpt>
      <trkpt lat="42.968639" lon="-0.761663">
        <ele>1820.028</ele>
        <time>2022-05-17T12:01:49Z</time>
      </trkpt>
      <trkpt lat="42.968595" lon="-0.761449">
        <ele>1824.346</ele>
        <time>2022-05-17T12:02:29Z</time>
      </trkpt>
      <trkpt lat="42.968637" lon="-0.761279">
        <ele>1827.079</ele>
        <time>2022-05-17T12:03:09Z</time>
      </trkpt>
      <trkpt lat="42.968588" lon="-0.761119">
        <ele>1830.205</ele>
        <time>2022-05-17T12:03:49Z</time>
      </trkpt>
      <trkpt lat="42.968571" lon="-0.760919">
        <ele>1833.025</ele>
        <time>2022-05-17T12:04:29Z</time>
      </trkpt>
      <trkpt lat="42.968459" lon="-0.760826">
        <ele>1834.709</ele>
        <time>2022-05-17T12:05:09Z</time>
      </trkpt>
      <trkpt lat="42.968347" lon="-0.760713">
        <ele>1836.768</ele>
        <time>2022-05-17T12:05:49Z</time>
      </trkpt>
      <trkpt lat="42.968230" lon="-0.760447">
        <ele>1838.957</ele>
        <time>2022-05-17T12:06:29Z</time>
      </trkpt>
      <trkpt lat="42.968136" lon="-0.760117">
        <ele>1843.410</ele>
        <time>2022-05-17T12:07:09Z</time>
      </trkpt>
      <trkpt lat="42.968126" lon="-0.759840">
        <ele>1848.447</ele>
        <time>2022-05-17T12:07:49Z</time>
      </trkpt>
      <trkpt lat="42.968158" lon="-0.759625">
        <ele>1851.779</ele>
        <time>2022-05-17T12:08:29Z</time>
      </trkpt>
      <trkpt lat="42.968190" lon="-0.759379">
        <ele>1855.166</ele>
        <time>2022-05-17T12:09:09Z</time>
      </trkpt>
      <trkpt lat="42.968269" lon="-0.759200">
        <ele>1857.732</ele>
        <time>2022-05-17T12:09:49Z</time>
      </trkpt>
      <trkpt lat="42.968274" lon="-0.758976">
        <ele>1863.293</ele>
        <time>2022-05-17T12:10:29Z</time>
      </trkpt>
      <trkpt lat="42.968347" lon="-0.758826">
        <ele>1866.781</ele>
        <time>2022-05-17T12:11:09Z</time>
      </trkpt>
      <trkpt lat="42.968264" lon="-0.758614">
        <ele>1872.461</ele>
        <time>2022-05-17T12:11:49Z</time>
      </trkpt>
      <trkpt lat="42.968151" lon="-0.758486">
        <ele>1876.021</ele>
        <time>2022-05-17T12:12:29Z</time>
      </trkpt>
      <trkpt lat="42.968110" lon="-0.758358">
        <ele>1878.713</ele>
        <time>2022-05-17T12:13:09Z</time>
      </trkpt>
      <trkpt lat="42.968024" lon="-0.757912">
        <ele>1885.009</ele>
        <time>2022-05-17T12:13:49Z</time>
      </trkpt>
      <trkpt lat="42.968014" lon="-0.757722">
        <ele>1887.957</ele>
        <time>2022-05-17T12:14:29Z</time>
      </trkpt>
      <trkpt lat="42.967947" lon="-0.757322">
        <ele>1890.256</ele>
        <time>2022-05-17T12:15:09Z</time>
      </trkpt>
      <trkpt lat="42.967927" lon="-0.757091">
        <ele>1892.249</ele>
        <time>2022-05-17T12:15:49Z</time>
      </trkpt>
      <trkpt lat="42.967860" lon="-0.756798">
        <ele>1894.416</ele>
        <time>2022-05-17T12:16:29Z</time>
      </trkpt>
      <trkpt lat="42.967798" lon="-0.756664">
        <ele>1893.838</ele>
        <time>2022-05-17T12:17:09Z</time>
      </trkpt>
      <trkpt lat="42.967799" lon="-0.756392">
        <ele>1896.075</ele>
        <time>2022-05-17T12:17:49Z</time>
      </trkpt>
      <trkpt lat="42.967847" lon="-0.756122">
        <ele>1900.221</ele>
        <time>2022-05-17T12:18:29Z</time>
      </trkpt>
      <trkpt lat="42.967837" lon="-0.755858">
        <ele>1901.652</ele>
        <time>2022-05-17T12:19:09Z</time>
      </trkpt>
      <trkpt lat="42.967849" lon="-0.755570">
        <ele>1903.680</ele>
        <time>2022-05-17T12:19:49Z</time>
      </trkpt>
      <trkpt lat="42.967839" lon="-0.755315">
        <ele>1904.559</ele>
        <time>2022-05-17T12:20:29Z</time>
      </trkpt>
      <trkpt lat="42.967794" lon="-0.755218">
        <ele>1902.603</ele>
        <time>2022-05-17T12:21:09Z</time>
      </trkpt>
      <trkpt lat="42.967795" lon="-0.755023">
        <ele>1904.623</ele>
        <time>2022-05-17T12:21:49Z</time>
      </trkpt>
      <trkpt lat="42.967890" lon="-0.754728">
        <ele>1912.009</ele>
        <time>2022-05-17T12:22:29Z</time>
      </trkpt>
      <trkpt lat="42.967916" lon="-0.754551">
        <ele>1913.666</ele>
        <time>2022-05-17T12:23:09Z</time>
      </trkpt>
      <trkpt lat="42.967893" lon="-0.754389">
        <ele>1913.945</ele>
        <time>2022-05-17T12:23:49Z</time>
      </trkpt>
      <trkpt lat="42.967879" lon="-0.754234">
        <ele>1914.838</ele>
        <time>2022-05-17T12:24:29Z</time>
      </trkpt>
      <trkpt lat="42.967922" lon="-0.753975">
        <ele>1918.315</ele>
        <time>2022-05-17T12:25:09Z</time>
      </trkpt>
      <trkpt lat="42.967905" lon="-0.753766">
        <ele>1923.157</ele>
        <time>2022-05-17T12:25:49Z</time>
      </trkpt>
      <trkpt lat="42.967867" lon="-0.753659">
        <ele>1926.694</ele>
        <time>2022-05-17T12:26:29Z</time>
      </trkpt>
      <trkpt lat="42.967819" lon="-0.753641">
        <ele>1927.680</ele>
        <time>2022-05-17T12:27:09Z</time>
      </trkpt>
      <trkpt lat="42.967855" lon="-0.753529">
        <ele>1931.351</ele>
        <time>2022-05-17T12:27:49Z</time>
      </trkpt>
      <trkpt lat="42.967817" lon="-0.753464">
        <ele>1934.389</ele>
        <time>2022-05-17T12:28:29Z</time>
      </trkpt>
      <trkpt lat="42.967893" lon="-0.753264">
        <ele>1940.656</ele>
        <time>2022-05-17T12:29:09Z</time>
      </trkpt>
      <trkpt lat="42.967967" lon="-0.753120">
        <ele>1944.259</ele>
        <time>2022-05-17T12:29:49Z</time>
      </trkpt>
      <trkpt lat="42.968016" lon="-0.753014">
        <ele>1946.414</ele>
        <time>2022-05-17T12:30:29Z</time>
      </trkpt>
      <trkpt lat="42.968022" lon="-0.752913">
        <ele>1949.409</ele>
        <time>2022-05-17T12:31:09Z</time>
      </trkpt>
      <trkpt lat="42.968071" lon="-0.752734">
        <ele>1952.516</ele>
        <time>2022-05-17T12:31:49Z</time>
      </trkpt>
      <trkpt lat="42.968148" lon="-0.752443">
        <ele>1955.795</ele>
        <time>2022-05-17T12:32:29Z</time>
      </trkpt>
      <trkpt lat="42.968247" lon="-0.752241">
        <ele>1954.278</ele>
        <time>2022-05-17T12:33:09Z</time>
      </trkpt>
      <trkpt lat="42.968228" lon="-0.752064">
        <ele>1959.295</ele>
        <time>2022-05-17T12:33:49Z</time>
      </trkpt>
      <trkpt lat="42.968220" lon="-0.751974">
        <ele>1961.737</ele>
        <time>2022-05-17T12:34:29Z</time>
      </trkpt>
      <trkpt lat="42.968234" lon="-0.751866">
        <ele>1963.774</ele>
        <time>2022-05-17T12:35:09Z</time>
      </trkpt>
      <trkpt lat="42.968255" lon="-0.751758">
        <ele>1965.580</ele>
        <time>2022-05-17T12:35:49Z</time>
      </trkpt>
      <trkpt lat="42.968287" lon="-0.751592">
        <ele>1968.331</ele>
        <time>2022-05-17T12:36:29Z</time>
      </trkpt>
      <trkpt lat="42.968328" lon="-0.751517">
        <ele>1968.069</ele>
        <time>2022-05-17T12:37:09Z</time>
      </trkpt>
      <trkpt lat="42.968342" lon="-0.751387">
        <ele>1970.683</ele>
        <time>2022-05-17T12:37:49Z</time>
      </trkpt>
      <trkpt lat="42.968335" lon="-0.751272">
        <ele>1971.325</ele>
        <time>2022-05-17T12:38:29Z</time>
      </trkpt>
      <trkpt lat="42.968290" lon="-0.751149">
        <ele>1973.517</ele>
        <time>2022-05-17T12:39:09Z</time>
      </trkpt>
      <trkpt lat="42.968234" lon="-0.751146">
        <ele>1975.609</ele>
        <time>2022-05-17T12:39:49Z</time>
      </trkpt>
      <trkpt lat="42.968197" lon="-0.751225">
        <ele>1977.389</ele>
        <time>2022-05-17T12:40:29Z</time>
      </trkpt>
      <trkpt lat="42.968161" lon="-0.751237">
        <ele>1978.948</ele>
        <time>2022-05-17T12:41:09Z</time>
      </trkpt>
      <trkpt lat="42.968121" lon="-0.751222">
        <ele>1980.551</ele>
        <time>2022-05-17T12:41:49Z</time>
      </trkpt>
      <trkpt lat="42.968089" lon="-0.751292">
        <ele>1982.458</ele>
        <time>2022-05-17T12:42:29Z</time>
      </trkpt>
      <trkpt lat="42.968048" lon="-0.751335">
        <ele>1984.950</ele>
        <time>2022-05-17T12:43:09Z</time>
      </trkpt>
      <trkpt lat="42.967983" lon="-0.751308">
        <ele>1988.317</ele>
        <time>2022-05-17T12:43:49Z</time>
      </trkpt>
      <trkpt lat="42.967939" lon="-0.751300">
        <ele>1990.793</ele>
        <time>2022-05-17T12:44:29Z</time>
      </trkpt>
      <trkpt lat="42.967921" lon="-0.751331">
        <ele>1992.644</ele>
        <time>2022-05-17T12:45:09Z</time>
      </trkpt>
      <trkpt lat="42.967885" lon="-0.751333">
        <ele>1994.832</ele>
        <time>2022-05-17T12:45:49Z</time>
      </trkpt>
      <trkpt lat="42.967870" lon="-0.751380">
        <ele>1997.417</ele>
        <time>2022-05-17T12:46:29Z</time>
      </trkpt>
      <trkpt lat="42.967843" lon="-0.751382">
        <ele>1999.387</ele>
        <time>2022-05-17T12:47:09Z</time>
      </trkpt>
      <trkpt lat="42.967842" lon="-0.751438">
        <ele>1999.215</ele>
        <time>2022-05-17T12:47:49Z</time>
      </trkpt>
      <trkpt lat="42.967798" lon="-0.751438">
        <ele>2002.409</ele>
        <time>2022-05-17T12:48:29Z</time>
      </trkpt>
      <trkpt lat="42.967779" lon="-0.751485">
        <ele>2003.642</ele>
        <time>2022-05-17T12:49:09Z</time>
      </trkpt>
      <trkpt lat="42.967757" lon="-0.751457">
        <ele>2005.061</ele>
        <time>2022-05-17T12:49:49Z</time>
      </trkpt>
      <trkpt lat="42.967725" lon="-0.751491">
        <ele>2007.064</ele>
        <time>2022-05-17T12:50:29Z</time>
      </trkpt>
      <trkpt lat="42.967697" lon="-0.751440">
        <ele>2008.651</ele>
        <time>2022-05-17T12:51:09Z</time>
      </trkpt>
      <trkpt lat="42.967670" lon="-0.751475">
        <ele>2010.513</ele>
        <time>2022-05-17T12:51:49Z</time>
      </trkpt>
      <trkpt lat="42.967638" lon="-0.751447">
        <ele>2012.240</ele>
        <time>2022-05-17T12:52:29Z</time>
      </trkpt>
      <trkpt lat="42.967606" lon="-0.751459">
        <ele>2014.376</ele>
        <time>2022-05-17T12:53:09Z</time>
      </trkpt>
      <trkpt lat="42.967586" lon="-0.751489">
        <ele>2016.037</ele>
        <time>2022-05-17T12:53:49Z</time>
      </trkpt>
      <trkpt lat="42.967572" lon="-0.751557">
        <ele>2018.115</ele>
        <time>2022-05-17T12:54:29Z</time>
      </trkpt>
      <trkpt lat="42.967527" lon="-0.751518">
        <ele>2020.462</ele>
        <time>2022-05-17T12:55:09Z</time>
      </trkpt>
      <trkpt lat="42.967502" lon="-0.751537">
        <ele>2022.683</ele>
        <time>2022-05-17T12:55:49Z</time>
      </trkpt>
      <trkpt lat="42.967488" lon="-0.751607">
        <ele>2025.011</ele>
        <time>2022-05-17T12:56:29Z</time>
      </trkpt>
      <trkpt lat="42.967442" lon="-0.751664">
        <ele>2028.609</ele>
        <time>2022-05-17T12:57:09Z</time>
      </trkpt>
      <trkpt lat="42.967420" lon="-0.751733">
        <ele>2027.247</ele>
        <time>2022-05-17T12:57:49Z</time>
      </trkpt>
      <trkpt lat="42.967393" lon="-0.751695">
        <ele>2029.846</ele>
        <time>2022-05-17T12:58:29Z</time>
      </trkpt>
      <trkpt lat="42.967354" lon="-0.751717">
        <ele>2030.589</ele>
        <time>2022-05-17T12:59:09Z</time>
      </trkpt>
      <trkpt lat="42.967329" lon="-0.751720">
        <ele>2031.466</ele>
        <time>2022-05-17T12:59:49Z</time>
      </trkpt>
      <trkpt lat="42.967299" lon="-0.751657">
        <ele>2034.968</ele>
        <time>2022-05-17T13:00:29Z</time>
      </trkpt>
      <trkpt lat="42.967262" lon="-0.751673">
        <ele>2036.885</ele>
        <time>2022-05-17T13:01:09Z</time>
      </trkpt>
      <trkpt lat="42.967211" lon="-0.751679">
        <ele>2038.021</ele>
        <time>2022-05-17T13:01:49Z</time>
      </trkpt>
      <trkpt lat="42.967166" lon="-0.751676">
        <ele>2037.022</ele>
        <time>2022-05-17T13:02:29Z</time>
      </trkpt>
      <trkpt lat="42.967121" lon="-0.751622">
        <ele>2034.640</ele>
        <time>2022-05-17T13:03:09Z</time>
      </trkpt>
      <trkpt lat="42.967094" lon="-0.751599">
        <ele>2033.312</ele>
        <time>2022-05-17T13:03:49Z</time>
      </trkpt>
      <trkpt lat="42.967083" lon="-0.751561">
        <ele>2031.932</ele>
        <time>2022-05-17T13:04:29Z</time>
      </trkpt>
      <trkpt lat="42.967011" lon="-0.751571">
        <ele>2031.605</ele>
        <time>2022-05-17T13:05:09Z</time>
      </trkpt>
      <trkpt lat="42.966987" lon="-0.751548">
        <ele>2030.909</ele>
        <time>2022-05-17T13:05:49Z</time>
      </trkpt>
      <trkpt lat="42.966909" lon="-0.751551">
        <ele>2028.722</ele>
        <time>2022-05-17T13:06:29Z</time>
      </trkpt>
      <trkpt lat="42.966859" lon="-0.751586">
        <ele>2026.331</ele>
        <time>2022-05-17T13:07:09Z</time>
      </trkpt>
      <trkpt lat="42.966828" lon="-0.751589">
        <ele>2024.644</ele>
        <time>2022-05-17T13:07:49Z</time>
      </trkpt>
      <trkpt lat="42.966801" lon="-0.751612">
        <ele>2023.541</ele>
        <time>2022-05-17T13:08:29Z</time>
      </trkpt>
      <trkpt lat="42.966713" lon="-0.751586">
        <ele>2018.173</ele>
        <time>2022-05-17T13:09:09Z</time>
      </trkpt>
      <trkpt lat="42.966616" lon="-0.751582">
        <ele>2011.260</ele>
        <time>2022-05-17T13:09:49Z</time>
      </trkpt>
      <trkpt lat="42.966575" lon="-0.751538">
        <ele>2007.596</ele>
        <time>2022-05-17T13:10:29Z</time>
      </trkpt>
      <trkpt lat="42.966557" lon="-0.751498">
        <ele>2005.987</ele>
        <time>2022-05-17T13:11:09Z</time>
      </trkpt>
      <trkpt lat="42.966536" lon="-0.751484">
        <ele>2004.365</ele>
        <time>2022-05-17T13:11:49Z</time>
      </trkpt>
      <trkpt lat="42.966492" lon="-0.751466">
        <ele>2001.158</ele>
        <time>2022-05-17T13:12:29Z</time>
      </trkpt>
      <trkpt lat="42.966453" lon="-0.751477">
        <ele>1998.352</ele>
        <time>2022-05-17T13:13:09Z</time>
      </trkpt>
      <trkpt lat="42.966436" lon="-0.751434">
        <ele>1997.517</ele>
        <time>2022-05-17T13:13:49Z</time>
      </trkpt>
      <trkpt lat="42.966373" lon="-0.751443">
        <ele>1993.309</ele>
        <time>2022-05-17T13:14:29Z</time>
      </trkpt>
      <trkpt lat="42.966318" lon="-0.751437">
        <ele>1990.356</ele>
        <time>2022-05-17T13:15:09Z</time>
      </trkpt>
      <trkpt lat="42.966290" lon="-0.751468">
        <ele>1988.045</ele>
        <time>2022-05-17T13:15:49Z</time>
      </trkpt>
      <trkpt lat="42.966280" lon="-0.751445">
        <ele>1987.998</ele>
        <time>2022-05-17T13:16:29Z</time>
      </trkpt>
      <trkpt lat="42.966151" lon="-0.751452">
        <ele>1980.375</ele>
        <time>2022-05-17T13:17:09Z</time>
      </trkpt>
      <trkpt lat="42.966089" lon="-0.751409">
        <ele>1978.437</ele>
        <time>2022-05-17T13:17:49Z</time>
      </trkpt>
      <trkpt lat="42.966002" lon="-0.751357">
        <ele>1974.264</ele>
        <time>2022-05-17T13:18:29Z</time>
      </trkpt>
      <trkpt lat="42.965912" lon="-0.751350">
        <ele>1970.320</ele>
        <time>2022-05-17T13:19:09Z</time>
      </trkpt>
      <trkpt lat="42.965845" lon="-0.751290">
        <ele>1966.331</ele>
        <time>2022-05-17T13:19:49Z</time>
      </trkpt>
      <trkpt lat="42.965755" lon="-0.751285">
        <ele>1963.199</ele>
        <time>2022-05-17T13:20:29Z</time>
      </trkpt>
      <trkpt lat="42.965689" lon="-0.751274">
        <ele>1960.726</ele>
        <time>2022-05-17T13:21:09Z</time>
      </trkpt>
      <trkpt lat="42.965611" lon="-0.751303">
        <ele>1958.347</ele>
        <time>2022-05-17T13:21:49Z</time>
      </trkpt>
      <trkpt lat="42.965562" lon="-0.751265">
        <ele>1956.311</ele>
        <time>2022-05-17T13:22:29Z</time>
      </trkpt>
      <trkpt lat="42.965503" lon="-0.751232">
        <ele>1954.509</ele>
        <time>2022-05-17T13:23:09Z</time>
      </trkpt>
      <trkpt lat="42.965418" lon="-0.751145">
        <ele>1952.883</ele>
        <time>2022-05-17T13:23:49Z</time>
      </trkpt>
      <trkpt lat="42.965258" lon="-0.751137">
        <ele>1950.082</ele>
        <time>2022-05-17T13:24:29Z</time>
      </trkpt>
      <trkpt lat="42.965216" lon="-0.751096">
        <ele>1949.255</ele>
        <time>2022-05-17T13:25:09Z</time>
      </trkpt>
      <trkpt lat="42.965108" lon="-0.751058">
        <ele>1946.342</ele>
        <time>2022-05-17T13:25:49Z</time>
      </trkpt>
      <trkpt lat="42.965037" lon="-0.751008">
        <ele>1944.914</ele>
        <time>2022-05-17T13:26:29Z</time>
      </trkpt>
      <trkpt lat="42.964958" lon="-0.750941">
        <ele>1943.631</ele>
        <time>2022-05-17T13:27:09Z</time>
      </trkpt>
      <trkpt lat="42.964864" lon="-0.750902">
        <ele>1941.837</ele>
        <time>2022-05-17T13:27:49Z</time>
      </trkpt>
      <trkpt lat="42.964742" lon="-0.750764">
        <ele>1939.968</ele>
        <time>2022-05-17T13:28:29Z</time>
      </trkpt>
      <trkpt lat="42.964700" lon="-0.750690">
        <ele>1938.936</ele>
        <time>2022-05-17T13:29:09Z</time>
      </trkpt>
      <trkpt lat="42.964684" lon="-0.750644">
        <ele>1938.573</ele>
        <time>2022-05-17T13:29:49Z</time>
      </trkpt>
      <trkpt lat="42.964628" lon="-0.750616">
        <ele>1937.485</ele>
        <time>2022-05-17T13:30:29Z</time>
      </trkpt>
      <trkpt lat="42.964536" lon="-0.750567">
        <ele>1936.213</ele>
        <time>2022-05-17T13:31:09Z</time>
      </trkpt>
      <trkpt lat="42.964427" lon="-0.750512">
        <ele>1934.309</ele>
        <time>2022-05-17T13:31:49Z</time>
      </trkpt>
      <trkpt lat="42.964327" lon="-0.750480">
        <ele>1931.368</ele>
        <time>2022-05-17T13:32:29Z</time>
      </trkpt>
      <trkpt lat="42.964207" lon="-0.750415">
        <ele>1928.177</ele>
        <time>2022-05-17T13:33:09Z</time>
      </trkpt>
      <trkpt lat="42.964117" lon="-0.750373">
        <ele>1925.540</ele>
        <time>2022-05-17T13:33:49Z</time>
      </trkpt>
      <trkpt lat="42.963998" lon="-0.750397">
        <ele>1920.867</ele>
        <time>2022-05-17T13:34:29Z</time>
      </trkpt>
      <trkpt lat="42.963888" lon="-0.750432">
        <ele>1916.379</ele>
        <time>2022-05-17T13:35:09Z</time>
      </trkpt>
      <trkpt lat="42.963816" lon="-0.750433">
        <ele>1916.136</ele>
        <time>2022-05-17T13:35:49Z</time>
      </trkpt>
      <trkpt lat="42.963890" lon="-0.750521">
        <ele>1915.442</ele>
        <time>2022-05-17T13:36:29Z</time>
      </trkpt>
      <trkpt lat="42.963959" lon="-0.750635">
        <ele>1915.863</ele>
        <time>2022-05-17T13:37:09Z</time>
      </trkpt>
      <trkpt lat="42.964063" lon="-0.750812">
        <ele>1915.421</ele>
        <time>2022-05-17T13:37:49Z</time>
      </trkpt>
      <trkpt lat="42.964193" lon="-0.750930">
        <ele>1917.383</ele>
        <time>2022-05-17T13:38:29Z</time>
      </trkpt>
      <trkpt lat="42.964206" lon="-0.751020">
        <ele>1915.225</ele>
        <time>2022-05-17T13:39:09Z</time>
      </trkpt>
      <trkpt lat="42.964327" lon="-0.751138">
        <ele>1916.517</ele>
        <time>2022-05-17T13:39:49Z</time>
      </trkpt>
      <trkpt lat="42.964437" lon="-0.751374">
        <ele>1914.109</ele>
        <time>2022-05-17T13:40:29Z</time>
      </trkpt>
      <trkpt lat="42.964499" lon="-0.751441">
        <ele>1915.229</ele>
        <time>2022-05-17T13:41:09Z</time>
      </trkpt>
      <trkpt lat="42.964552" lon="-0.751614">
        <ele>1912.688</ele>
        <time>2022-05-17T13:41:49Z</time>
      </trkpt>
      <trkpt lat="42.964677" lon="-0.751821">
        <ele>1911.391</ele>
        <time>2022-05-17T13:42:29Z</time>
      </trkpt>
      <trkpt lat="42.964863" lon="-0.751938">
        <ele>1912.878</ele>
        <time>2022-05-17T13:43:09Z</time>
      </trkpt>
      <trkpt lat="42.964931" lon="-0.752089">
        <ele>1908.990</ele>
        <time>2022-05-17T13:43:49Z</time>
      </trkpt>
      <trkpt lat="42.965002" lon="-0.752082">
        <ele>1911.197</ele>
        <time>2022-05-17T13:44:29Z</time>
      </trkpt>
      <trkpt lat="42.965043" lon="-0.752205">
        <ele>1908.933</ele>
        <time>2022-05-17T13:45:09Z</time>
      </trkpt>
      <trkpt lat="42.965123" lon="-0.752429">
        <ele>1907.194</ele>
        <time>2022-05-17T13:45:49Z</time>
      </trkpt>
      <trkpt lat="42.965269" lon="-0.752622">
        <ele>1909.012</ele>
        <time>2022-05-17T13:46:29Z</time>
      </trkpt>
      <trkpt lat="42.965352" lon="-0.752816">
        <ele>1906.121</ele>
        <time>2022-05-17T13:47:09Z</time>
      </trkpt>
      <trkpt lat="42.965589" lon="-0.753047">
        <ele>1906.241</ele>
        <time>2022-05-17T13:47:49Z</time>
      </trkpt>
      <trkpt lat="42.965659" lon="-0.753144">
        <ele>1905.205</ele>
        <time>2022-05-17T13:48:29Z</time>
      </trkpt>
      <trkpt lat="42.965787" lon="-0.753323">
        <ele>1903.809</ele>
        <time>2022-05-17T13:49:09Z</time>
      </trkpt>
      <trkpt lat="42.965890" lon="-0.753372">
        <ele>1905.073</ele>
        <time>2022-05-17T13:49:49Z</time>
      </trkpt>
      <trkpt lat="42.965994" lon="-0.753523">
        <ele>1901.932</ele>
        <time>2022-05-17T13:50:29Z</time>
      </trkpt>
      <trkpt lat="42.966230" lon="-0.753581">
        <ele>1904.335</ele>
        <time>2022-05-17T13:51:09Z</time>
      </trkpt>
      <trkpt lat="42.966373" lon="-0.753710">
        <ele>1901.722</ele>
        <time>2022-05-17T13:51:49Z</time>
      </trkpt>
      <trkpt lat="42.966629" lon="-0.753827">
        <ele>1902.094</ele>
        <time>2022-05-17T13:52:29Z</time>
      </trkpt>
      <trkpt lat="42.966764" lon="-0.753947">
        <ele>1901.581</ele>
        <time>2022-05-17T13:53:09Z</time>
      </trkpt>
      <trkpt lat="42.966851" lon="-0.754068">
        <ele>1899.817</ele>
        <time>2022-05-17T13:53:49Z</time>
      </trkpt>
      <trkpt lat="42.967118" lon="-0.754238">
        <ele>1896.868</ele>
        <time>2022-05-17T13:54:29Z</time>
      </trkpt>
      <trkpt lat="42.967183" lon="-0.754214">
        <ele>1898.466</ele>
        <time>2022-05-17T13:55:09Z</time>
      </trkpt>
      <trkpt lat="42.967277" lon="-0.754161">
        <ele>1901.996</ele>
        <time>2022-05-17T13:55:49Z</time>
      </trkpt>
      <trkpt lat="42.967368" lon="-0.754153">
        <ele>1903.231</ele>
        <time>2022-05-17T13:56:29Z</time>
      </trkpt>
      <trkpt lat="42.967435" lon="-0.754178">
        <ele>1902.924</ele>
        <time>2022-05-17T13:57:09Z</time>
      </trkpt>
      <trkpt lat="42.967565" lon="-0.754377">
        <ele>1901.209</ele>
        <time>2022-05-17T13:57:49Z</time>
      </trkpt>
      <trkpt lat="42.967684" lon="-0.754597">
        <ele>1903.480</ele>
        <time>2022-05-17T13:58:29Z</time>
      </trkpt>
      <trkpt lat="42.967737" lon="-0.754842">
        <ele>1903.139</ele>
        <time>2022-05-17T13:59:09Z</time>
      </trkpt>
      <trkpt lat="42.967818" lon="-0.755112">
        <ele>1905.092</ele>
        <time>2022-05-17T13:59:49Z</time>
      </trkpt>
      <trkpt lat="42.967801" lon="-0.755303">
        <ele>1902.279</ele>
        <time>2022-05-17T14:00:29Z</time>
      </trkpt>
      <trkpt lat="42.967830" lon="-0.755380">
        <ele>1903.531</ele>
        <time>2022-05-17T14:01:09Z</time>
      </trkpt>
      <trkpt lat="42.967858" lon="-0.755667">
        <ele>1903.868</ele>
        <time>2022-05-17T14:01:49Z</time>
      </trkpt>
      <trkpt lat="42.967846" lon="-0.755897">
        <ele>1901.954</ele>
        <time>2022-05-17T14:02:29Z</time>
      </trkpt>
      <trkpt lat="42.967836" lon="-0.755987">
        <ele>1900.525</ele>
        <time>2022-05-17T14:03:09Z</time>
      </trkpt>
      <trkpt lat="42.967861" lon="-0.756168">
        <ele>1900.753</ele>
        <time>2022-05-17T14:03:49Z</time>
      </trkpt>
      <trkpt lat="42.967825" lon="-0.756345">
        <ele>1897.649</ele>
        <time>2022-05-17T14:04:29Z</time>
      </trkpt>
      <trkpt lat="42.967808" lon="-0.756531">
        <ele>1895.302</ele>
        <time>2022-05-17T14:05:09Z</time>
      </trkpt>
      <trkpt lat="42.967825" lon="-0.756683">
        <ele>1894.722</ele>
        <time>2022-05-17T14:05:49Z</time>
      </trkpt>
      <trkpt lat="42.967872" lon="-0.756849">
        <ele>1894.109</ele>
        <time>2022-05-17T14:06:29Z</time>
      </trkpt>
      <trkpt lat="42.967922" lon="-0.757022">
        <ele>1893.075</ele>
        <time>2022-05-17T14:07:09Z</time>
      </trkpt>
      <trkpt lat="42.967939" lon="-0.757138">
        <ele>1891.974</ele>
        <time>2022-05-17T14:07:49Z</time>
      </trkpt>
      <trkpt lat="42.967969" lon="-0.757429">
        <ele>1890.337</ele>
        <time>2022-05-17T14:08:29Z</time>
      </trkpt>
      <trkpt lat="42.968034" lon="-0.757835">
        <ele>1886.544</ele>
        <time>2022-05-17T14:09:09Z</time>
      </trkpt>
      <trkpt lat="42.968072" lon="-0.758111">
        <ele>1882.566</ele>
        <time>2022-05-17T14:09:49Z</time>
      </trkpt>
      <trkpt lat="42.968148" lon="-0.758416">
        <ele>1877.583</ele>
        <time>2022-05-17T14:10:29Z</time>
      </trkpt>
      <trkpt lat="42.968224" lon="-0.758627">
        <ele>1872.479</ele>
        <time>2022-05-17T14:11:09Z</time>
      </trkpt>
      <trkpt lat="42.968316" lon="-0.758734">
        <ele>1869.080</ele>
        <time>2022-05-17T14:11:49Z</time>
      </trkpt>
      <trkpt lat="42.968335" lon="-0.758895">
        <ele>1864.978</ele>
        <time>2022-05-17T14:12:29Z</time>
      </trkpt>
      <trkpt lat="42.968225" lon="-0.759222">
        <ele>1857.552</ele>
        <time>2022-05-17T14:13:09Z</time>
      </trkpt>
      <trkpt lat="42.968159" lon="-0.759339">
        <ele>1855.953</ele>
        <time>2022-05-17T14:13:49Z</time>
      </trkpt>
      <trkpt lat="42.968163" lon="-0.759514">
        <ele>1853.208</ele>
        <time>2022-05-17T14:14:29Z</time>
      </trkpt>
      <trkpt lat="42.968145" lon="-0.759714">
        <ele>1850.509</ele>
        <time>2022-05-17T14:15:09Z</time>
      </trkpt>
      <trkpt lat="42.968140" lon="-0.759963">
        <ele>1846.236</ele>
        <time>2022-05-17T14:15:49Z</time>
      </trkpt>
      <trkpt lat="42.968194" lon="-0.760261">
        <ele>1841.845</ele>
        <time>2022-05-17T14:16:29Z</time>
      </trkpt>
      <trkpt lat="42.968262" lon="-0.760535">
        <ele>1837.818</ele>
        <time>2022-05-17T14:17:09Z</time>
      </trkpt>
      <trkpt lat="42.968394" lon="-0.760762">
        <ele>1835.965</ele>
        <time>2022-05-17T14:17:49Z</time>
      </trkpt>
      <trkpt lat="42.968521" lon="-0.760861">
        <ele>1834.027</ele>
        <time>2022-05-17T14:18:29Z</time>
      </trkpt>
      <trkpt lat="42.968603" lon="-0.761003">
        <ele>1831.664</ele>
        <time>2022-05-17T14:19:09Z</time>
      </trkpt>
      <trkpt lat="42.968605" lon="-0.761179">
        <ele>1828.960</ele>
        <time>2022-05-17T14:19:49Z</time>
      </trkpt>
      <trkpt lat="42.968648" lon="-0.761388">
        <ele>1825.071</ele>
        <time>2022-05-17T14:20:29Z</time>
      </trkpt>
      <trkpt lat="42.968595" lon="-0.761549">
        <ele>1822.679</ele>
        <time>2022-05-17T14:21:09Z</time>
      </trkpt>
      <trkpt lat="42.968684" lon="-0.761740">
        <ele>1818.446</ele>
        <time>2022-05-17T14:21:49Z</time>
      </trkpt>
      <trkpt lat="42.968745" lon="-0.761952">
        <ele>1814.488</ele>
        <time>2022-05-17T14:22:29Z</time>
      </trkpt>
      <trkpt lat="42.968829" lon="-0.762081">
        <ele>1812.016</ele>
        <time>2022-05-17T14:23:09Z</time>
      </trkpt>
      <trkpt lat="42.968937" lon="-0.762074">
        <ele>1810.509</ele>
        <time>2022-05-17T14:23:49Z</time>
      </trkpt>
      <trkpt lat="42.969004" lon="-0.762167">
        <ele>1807.215</ele>
        <time>2022-05-17T14:24:29Z</time>
      </trkpt>
      <trkpt lat="42.969119" lon="-0.762164">
        <ele>1804.474</ele>
        <time>2022-05-17T14:25:09Z</time>
      </trkpt>
      <trkpt lat="42.969222" lon="-0.762270">
        <ele>1799.377</ele>
        <time>2022-05-17T14:25:49Z</time>
      </trkpt>
      <trkpt lat="42.969272" lon="-0.762395">
        <ele>1795.044</ele>
        <time>2022-05-17T14:26:29Z</time>
      </trkpt>
      <trkpt lat="42.969352" lon="-0.762585">
        <ele>1788.556</ele>
        <time>2022-05-17T14:27:09Z</time>
      </trkpt>
      <trkpt lat="42.969330" lon="-0.762701">
        <ele>1787.133</ele>
        <time>2022-05-17T14:27:49Z</time>
      </trkpt>
      <trkpt lat="42.969433" lon="-0.763025">
        <ele>1784.059</ele>
        <time>2022-05-17T14:28:29Z</time>
      </trkpt>
      <trkpt lat="42.969359" lon="-0.763187">
        <ele>1785.960</ele>
        <time>2022-05-17T14:29:09Z</time>
      </trkpt>
      <trkpt lat="42.969311" lon="-0.763385">
        <ele>1786.348</ele>
        <time>2022-05-17T14:29:49Z</time>
      </trkpt>
      <trkpt lat="42.969279" lon="-0.763589">
        <ele>1783.567</ele>
        <time>2022-05-17T14:30:29Z</time>
      </trkpt>
      <trkpt lat="42.969121" lon="-0.763789">
        <ele>1776.081</ele>
        <time>2022-05-17T14:31:09Z</time>
      </trkpt>
      <trkpt lat="42.968987" lon="-0.763977">
        <ele>1774.219</ele>
        <time>2022-05-17T14:31:49Z</time>
      </trkpt>
      <trkpt lat="42.968940" lon="-0.764258">
        <ele>1771.509</ele>
        <time>2022-05-17T14:32:29Z</time>
      </trkpt>
      <trkpt lat="42.968831" lon="-0.764627">
        <ele>1771.017</ele>
        <time>2022-05-17T14:33:09Z</time>
      </trkpt>
      <trkpt lat="42.968746" lon="-0.764781">
        <ele>1770.296</ele>
        <time>2022-05-17T14:33:49Z</time>
      </trkpt>
      <trkpt lat="42.968640" lon="-0.764927">
        <ele>1767.589</ele>
        <time>2022-05-17T14:34:29Z</time>
      </trkpt>
      <trkpt lat="42.968619" lon="-0.765115">
        <ele>1766.386</ele>
        <time>2022-05-17T14:35:09Z</time>
      </trkpt>
      <trkpt lat="42.968631" lon="-0.765345">
        <ele>1767.618</ele>
        <time>2022-05-17T14:35:49Z</time>
      </trkpt>
      <trkpt lat="42.968612" lon="-0.765595">
        <ele>1770.355</ele>
        <time>2022-05-17T14:36:29Z</time>
      </trkpt>
      <trkpt lat="42.968588" lon="-0.765780">
        <ele>1775.381</ele>
        <time>2022-05-17T14:37:09Z</time>
      </trkpt>
      <trkpt lat="42.968661" lon="-0.765875">
        <ele>1779.492</ele>
        <time>2022-05-17T14:37:49Z</time>
      </trkpt>
      <trkpt lat="42.968650" lon="-0.766093">
        <ele>1781.320</ele>
        <time>2022-05-17T14:38:29Z</time>
      </trkpt>
      <trkpt lat="42.968579" lon="-0.766129">
        <ele>1779.611</ele>
        <time>2022-05-17T14:39:09Z</time>
      </trkpt>
      <trkpt lat="42.968653" lon="-0.766227">
        <ele>1781.421</ele>
        <time>2022-05-17T14:39:49Z</time>
      </trkpt>
      <trkpt lat="42.968699" lon="-0.766335">
        <ele>1781.703</ele>
        <time>2022-05-17T14:40:29Z</time>
      </trkpt>
      <trkpt lat="42.968742" lon="-0.766516">
        <ele>1781.509</ele>
        <time>2022-05-17T14:41:09Z</time>
      </trkpt>
      <trkpt lat="42.968755" lon="-0.766713">
        <ele>1780.882</ele>
        <time>2022-05-17T14:41:49Z</time>
      </trkpt>
      <trkpt lat="42.968741" lon="-0.766992">
        <ele>1778.911</ele>
        <time>2022-05-17T14:42:29Z</time>
      </trkpt>
      <trkpt lat="42.968771" lon="-0.767097">
        <ele>1778.044</ele>
        <time>2022-05-17T14:43:09Z</time>
      </trkpt>
      <trkpt lat="42.968855" lon="-0.767268">
        <ele>1775.611</ele>
        <time>2022-05-17T14:43:49Z</time>
      </trkpt>
      <trkpt lat="42.968938" lon="-0.767323">
        <ele>1773.193</ele>
        <time>2022-05-17T14:44:29Z</time>
      </trkpt>
      <trkpt lat="42.969041" lon="-0.767322">
        <ele>1771.170</ele>
        <time>2022-05-17T14:45:09Z</time>
      </trkpt>
      <trkpt lat="42.969234" lon="-0.767306">
        <ele>1767.946</ele>
        <time>2022-05-17T14:45:49Z</time>
      </trkpt>
      <trkpt lat="42.969317" lon="-0.767329">
        <ele>1766.647</ele>
        <time>2022-05-17T14:46:29Z</time>
      </trkpt>
    </trkseg>
  </trk></gpx>